createdAt,value
2022-10-31T00:01:19.415Z,14.20
2022-10-31T00:03:48.663Z,14.73
2022-10-31T00:06:19.208Z,13.68
2022-10-31T00:08:47.955Z,14.07
2022-10-31T00:11:16.291Z,14.27
2022-10-31T00:13:44.463Z,14.13
2022-10-31T00:16:17.922Z,14.23
2022-10-31T00:18:46.452Z,15.07
2022-10-31T00:21:15.219Z,14.93
2022-10-31T00:23:43.491Z,13.38
2022-10-31T00:26:11.700Z,13.43
2022-10-31T00:28:40.105Z,13.65
2022-10-31T00:31:10.355Z,14.13
2022-10-31T00:33:41.897Z,14.13
2022-10-31T00:36:14.224Z,13.73
2022-10-31T00:38:42.930Z,14.30
2022-10-31T00:41:11.691Z,14.33
2022-10-31T00:43:40.102Z,12.70
2022-10-31T00:46:08.344Z,13.48
2022-10-31T00:48:36.497Z,13.30
2022-10-31T00:51:06.480Z,14.07
2022-10-31T00:53:34.644Z,13.10
2022-10-31T00:56:03.124Z,13.10
2022-10-31T00:58:31.361Z,12.73
2022-10-31T01:00:59.589Z,13.60
2022-10-31T01:03:29.676Z,13.25
2022-10-31T01:05:59.467Z,12.57
2022-10-31T01:08:29.533Z,13.43
2022-10-31T01:11:06.601Z,13.15
2022-10-31T01:13:35.454Z,12.73
2022-10-31T01:16:05.407Z,12.43
2022-10-31T01:18:33.870Z,13.67
2022-10-31T01:21:03.665Z,12.32
2022-10-31T01:23:34.369Z,13.02
2022-10-31T01:26:05.809Z,12.03
2022-10-31T01:28:34.577Z,12.30
2022-10-31T01:31:04.683Z,11.33
2022-10-31T01:33:32.861Z,11.67
2022-10-31T01:36:01.315Z,11.83
2022-10-31T01:38:29.943Z,12.07
2022-10-31T01:41:00.771Z,11.45
2022-10-31T01:43:44.971Z,11.57
2022-10-31T01:46:13.838Z,11.82
2022-10-31T01:48:43.744Z,12.03
2022-10-31T01:51:15.596Z,11.25
2022-10-31T01:53:45.506Z,12.68
2022-10-31T01:56:16.040Z,12.20
2022-10-31T01:58:44.662Z,12.20
2022-10-31T02:01:14.862Z,12.10
2022-10-31T02:03:43.306Z,12.13
2022-10-31T02:06:17.563Z,12.27
2022-10-31T02:08:46.672Z,12.98
2022-10-31T02:11:17.599Z,11.30
2022-10-31T02:13:45.900Z,11.77
2022-10-31T02:16:14.266Z,11.38
2022-10-31T02:18:42.661Z,11.50
2022-10-31T02:21:19.200Z,12.57
2022-10-31T02:24:13.883Z,12.03
2022-10-31T02:26:54.127Z,11.77
2022-10-31T02:29:55.646Z,12.10
2022-10-31T02:32:31.420Z,11.60
2022-10-31T02:35:07.084Z,11.20
2022-10-31T02:37:40.290Z,10.80
2022-10-31T02:40:16.364Z,12.13
2022-10-31T02:42:53.790Z,11.93
2022-10-31T02:45:30.060Z,12.87
2022-10-31T02:48:05.506Z,11.15
2022-10-31T02:50:36.421Z,11.57
2022-10-31T02:53:05.579Z,12.55
2022-10-31T02:55:51.372Z,10.60
2022-10-31T02:58:24.172Z,11.98
2022-10-31T03:01:18.229Z,11.70
2022-10-31T03:04:04.465Z,12.10
2022-10-31T03:06:37.392Z,11.37
2022-10-31T03:09:13.136Z,12.87
2022-10-31T03:11:52.875Z,11.80
2022-10-31T03:14:28.724Z,11.10
2022-10-31T03:16:59.279Z,12.03
2022-10-31T03:19:32.413Z,12.30
2022-10-31T03:22:04.188Z,11.70
2022-10-31T03:24:34.617Z,12.02
2022-10-31T03:27:04.233Z,12.20
2022-10-31T03:29:37.473Z,11.87
2022-10-31T03:32:09.526Z,11.43
2022-10-31T03:34:42.341Z,10.43
2022-10-31T03:37:13.688Z,11.07
2022-10-31T03:39:44.642Z,11.47
2022-10-31T03:42:16.336Z,11.00
2022-10-31T03:44:49.269Z,11.70
2022-10-31T03:47:17.834Z,10.55
2022-10-31T03:49:47.502Z,9.00
2022-10-31T03:52:23.395Z,9.63
2022-10-31T03:54:57.011Z,9.83
2022-10-31T03:57:29.406Z,8.87
2022-10-31T04:00:01.997Z,9.77
2022-10-31T04:02:33.825Z,10.07
2022-10-31T04:05:05.135Z,8.67
2022-10-31T04:07:37.741Z,8.73
2022-10-31T04:10:10.024Z,8.70
2022-10-31T04:12:40.373Z,8.95
2022-10-31T04:15:11.512Z,8.57
2022-10-31T04:17:44.548Z,8.30
2022-10-31T04:20:19.470Z,8.38
2022-10-31T04:22:47.988Z,7.90
2022-10-31T04:25:16.491Z,8.53
2022-10-31T04:27:44.756Z,8.25
2022-10-31T04:30:13.635Z,7.65
2022-10-31T04:32:42.094Z,8.25
2022-10-31T04:35:11.343Z,7.65
2022-10-31T04:37:41.618Z,7.35
2022-10-31T04:40:11.020Z,8.00
2022-10-31T04:42:39.439Z,7.60
2022-10-31T04:45:08.575Z,8.20
2022-10-31T04:47:36.811Z,7.25
2022-10-31T04:50:06.322Z,7.88
2022-10-31T04:52:40.515Z,7.80
2022-10-31T04:55:11.161Z,8.57
2022-10-31T04:57:43.288Z,8.10
2022-10-31T05:00:13.416Z,8.27
2022-10-31T05:02:48.820Z,8.27
2022-10-31T05:05:18.303Z,8.68
2022-10-31T05:07:48.787Z,7.47
2022-10-31T05:10:21.015Z,8.05
2022-10-31T05:12:50.090Z,8.55
2022-10-31T05:15:19.608Z,8.95
2022-10-31T05:17:48.050Z,8.38
2022-10-31T05:20:17.794Z,8.00
2022-10-31T05:22:46.420Z,8.83
2022-10-31T05:25:14.839Z,8.35
2022-10-31T05:27:46.557Z,7.95
2022-10-31T05:30:17.667Z,7.70
2022-10-31T05:32:47.434Z,7.72
2022-10-31T05:35:18.265Z,8.73
2022-10-31T05:37:46.632Z,7.43
2022-10-31T05:40:16.465Z,8.68
2022-10-31T05:42:46.854Z,8.60
2022-10-31T05:45:17.112Z,8.40
2022-10-31T05:47:51.805Z,8.82
2022-10-31T05:50:20.744Z,7.37
2022-10-31T05:52:49.204Z,8.50
2022-10-31T05:55:17.675Z,8.07
2022-10-31T05:57:47.812Z,8.80
2022-10-31T06:00:16.262Z,8.13
2022-10-31T06:02:45.046Z,9.13
2022-10-31T06:05:13.556Z,8.02
2022-10-31T06:07:42.520Z,9.32
2022-10-31T06:10:11.389Z,8.02
2022-10-31T06:12:42.006Z,8.63
2022-10-31T06:15:12.360Z,7.82
2022-10-31T06:17:41.346Z,8.60
2022-10-31T06:20:10.636Z,8.32
2022-10-31T06:22:38.862Z,8.25
2022-10-31T06:25:07.724Z,8.35
2022-10-31T06:27:35.899Z,8.30
2022-10-31T06:30:04.638Z,9.00
2022-10-31T06:32:34.398Z,9.70
2022-10-31T06:35:02.880Z,9.32
2022-10-31T06:37:31.270Z,8.38
2022-10-31T06:39:59.720Z,8.38
2022-10-31T06:42:28.240Z,8.18
2022-10-31T06:44:57.000Z,9.60
2022-10-31T06:47:25.271Z,9.30
2022-10-31T06:49:54.982Z,8.80
2022-10-31T06:52:24.426Z,8.25
2022-10-31T06:54:52.856Z,8.60
2022-10-31T06:57:21.287Z,8.95
2022-10-31T06:59:49.825Z,9.32
2022-10-31T07:02:18.462Z,8.25
2022-10-31T07:04:46.767Z,8.20
2022-10-31T07:07:16.500Z,8.77
2022-10-31T07:09:44.792Z,8.93
2022-10-31T07:12:12.930Z,8.48
2022-10-31T07:14:41.120Z,8.90
2022-10-31T07:17:09.288Z,8.45
2022-10-31T07:19:37.605Z,8.80
2022-10-31T07:22:05.925Z,8.45
2022-10-31T07:24:35.563Z,8.63
2022-10-31T07:27:03.793Z,8.65
2022-10-31T07:29:31.980Z,8.73
2022-10-31T07:32:00.245Z,9.13
2022-10-31T07:34:28.544Z,7.85
2022-10-31T07:36:56.736Z,7.95
2022-10-31T07:39:24.987Z,8.63
2022-10-31T07:41:54.650Z,8.10
2022-10-31T07:44:22.933Z,8.77
2022-10-31T07:46:51.198Z,9.20
2022-10-31T07:49:19.385Z,9.25
2022-10-31T07:51:47.645Z,9.50
2022-10-31T07:54:15.812Z,8.98
2022-10-31T07:56:44.079Z,8.90
2022-10-31T07:59:14.933Z,9.60
2022-10-31T08:01:43.197Z,8.98
2022-10-31T08:04:11.375Z,9.45
2022-10-31T08:06:39.524Z,9.82
2022-10-31T08:09:07.934Z,9.30
2022-10-31T08:11:36.247Z,9.02
2022-10-31T08:14:04.555Z,9.20
2022-10-31T08:16:34.265Z,8.85
2022-10-31T08:19:02.509Z,9.70
2022-10-31T08:21:30.807Z,9.25
2022-10-31T08:23:59.283Z,10.13
2022-10-31T08:26:27.571Z,9.60
2022-10-31T08:28:55.908Z,9.50
2022-10-31T08:31:28.045Z,10.32
2022-10-31T08:34:01.991Z,9.32
2022-10-31T08:36:30.808Z,10.77
2022-10-31T08:39:01.879Z,10.32
2022-10-31T08:41:31.349Z,10.85
2022-10-31T08:43:59.843Z,10.70
2022-10-31T08:46:28.260Z,11.02
2022-10-31T08:48:56.442Z,10.85
2022-10-31T08:51:26.111Z,11.07
2022-10-31T08:53:54.249Z,11.68
2022-10-31T08:56:23.538Z,11.50
2022-10-31T08:58:52.249Z,9.98
2022-10-31T09:01:20.711Z,11.48
2022-10-31T09:03:49.027Z,11.70
2022-10-31T09:06:17.360Z,11.93
2022-10-31T09:08:47.390Z,11.43
2022-10-31T09:11:15.765Z,10.80
2022-10-31T09:13:44.039Z,11.63
2022-10-31T09:16:12.357Z,11.38
2022-10-31T09:18:40.638Z,12.52
2022-10-31T09:21:09.697Z,12.25
2022-10-31T09:23:38.076Z,11.80
2022-10-31T09:26:08.124Z,12.43
2022-10-31T09:28:41.270Z,12.45
2022-10-31T09:31:09.635Z,11.00
2022-10-31T09:33:40.941Z,12.40
2022-10-31T09:36:09.793Z,13.98
2022-10-31T09:38:38.226Z,11.35
2022-10-31T09:41:22.128Z,12.73
2022-10-31T09:44:01.964Z,12.45
2022-10-31T09:46:38.623Z,13.07
2022-10-31T09:49:27.098Z,12.90
2022-10-31T09:52:01.041Z,12.05
2022-10-31T09:54:37.125Z,12.70
2022-10-31T09:57:08.708Z,13.35
2022-10-31T09:59:40.101Z,12.90
2022-10-31T10:02:19.055Z,11.95
2022-10-31T10:04:55.363Z,12.93
2022-10-31T10:07:33.901Z,13.10
2022-10-31T10:10:10.568Z,12.95
2022-10-31T10:12:51.633Z,12.77
2022-10-31T10:15:48.763Z,13.00
2022-10-31T10:18:27.277Z,13.07
2022-10-31T10:21:08.781Z,13.52
2022-10-31T10:23:51.587Z,12.63
2022-10-31T10:26:22.733Z,12.50
2022-10-31T10:29:03.945Z,13.40
2022-10-31T10:31:39.786Z,12.75
2022-10-31T10:34:13.909Z,14.48
2022-10-31T10:36:47.127Z,13.95
2022-10-31T10:39:19.895Z,12.88
2022-10-31T10:42:04.760Z,13.68
2022-10-31T10:44:52.027Z,13.48
2022-10-31T10:47:39.835Z,14.77
2022-10-31T10:50:15.373Z,13.20
2022-10-31T10:52:54.008Z,13.23
2022-10-31T10:55:38.458Z,13.85
2022-10-31T10:58:12.745Z,14.15
2022-10-31T11:00:47.445Z,13.65
2022-10-31T11:03:20.718Z,14.60
2022-10-31T11:05:52.866Z,12.23
2022-10-31T11:08:28.558Z,13.73
2022-10-31T11:11:03.738Z,13.32
2022-10-31T11:13:33.313Z,13.38
2022-10-31T11:16:06.477Z,13.30
2022-10-31T11:18:41.953Z,14.35
2022-10-31T11:21:23.413Z,13.77
2022-10-31T11:23:52.014Z,12.85
2022-10-31T11:26:23.067Z,14.95
2022-10-31T11:29:05.084Z,12.88
2022-10-31T11:31:38.667Z,14.55
2022-10-31T11:34:14.598Z,14.27
2022-10-31T11:36:46.834Z,13.80
2022-10-31T11:39:25.758Z,13.43
2022-10-31T11:41:56.736Z,13.77
2022-10-31T11:44:29.342Z,13.88
2022-10-31T11:47:01.728Z,13.43
2022-10-31T11:49:34.668Z,14.85
2022-10-31T11:52:09.352Z,14.30
2022-10-31T11:54:47.240Z,14.25
2022-10-31T11:57:26.932Z,14.35
2022-10-31T11:59:57.256Z,13.20
2022-10-31T12:02:28.315Z,13.90
2022-10-31T12:05:04.949Z,13.35
2022-10-31T12:07:33.808Z,13.95
2022-10-31T12:10:02.677Z,13.23
2022-10-31T12:12:49.881Z,14.50
2022-10-31T12:15:33.242Z,13.43
2022-10-31T12:18:38.266Z,14.32
2022-10-31T12:21:19.117Z,13.75
2022-10-31T12:24:00.109Z,14.32
2022-10-31T12:26:37.148Z,13.95
2022-10-31T12:29:24.326Z,15.07
2022-10-31T12:32:07.110Z,13.93
2022-10-31T12:34:52.539Z,15.00
2022-10-31T12:37:39.709Z,13.48
2022-10-31T12:40:27.701Z,13.88
2022-10-31T12:43:09.680Z,15.05
2022-10-31T12:45:49.950Z,14.02
2022-10-31T12:48:32.855Z,13.38
2022-10-31T12:51:09.697Z,15.52
2022-10-31T12:53:53.398Z,14.85
2022-10-31T12:56:41.294Z,14.85
2022-10-31T12:59:24.054Z,13.43
2022-10-31T13:02:02.198Z,15.70
2022-10-31T13:04:46.040Z,14.32
2022-10-31T13:07:21.375Z,14.20
2022-10-31T13:09:56.861Z,13.50
2022-10-31T13:12:26.902Z,13.35
2022-10-31T13:14:58.138Z,14.48
2022-10-31T13:17:34.174Z,13.18
2022-10-31T13:20:20.735Z,14.05
2022-10-31T13:22:54.474Z,13.73
2022-10-31T13:25:28.063Z,12.88
2022-10-31T13:28:02.109Z,14.63
2022-10-31T13:30:39.040Z,14.38
2022-10-31T13:33:13.931Z,15.18
2022-10-31T13:35:50.074Z,14.52
2022-10-31T13:38:31.899Z,13.77
2022-10-31T13:41:09.876Z,14.05
2022-10-31T13:43:59.534Z,14.02
2022-10-31T13:46:39.151Z,13.43
2022-10-31T13:49:24.053Z,14.52
2022-10-31T13:51:53.706Z,14.05
2022-10-31T13:54:35.218Z,13.32
2022-10-31T13:57:05.280Z,13.65
2022-10-31T13:59:42.021Z,13.32
2022-10-31T14:02:18.832Z,13.02
2022-10-31T14:04:51.249Z,12.65
2022-10-31T14:07:24.664Z,12.98
2022-10-31T14:09:59.497Z,13.75
2022-10-31T14:12:32.462Z,14.02
2022-10-31T14:15:14.298Z,12.32
2022-10-31T14:17:50.428Z,13.65
2022-10-31T14:20:40.901Z,13.82
2022-10-31T14:23:41.600Z,14.68
2022-10-31T14:26:38.368Z,12.68
2022-10-31T14:29:29.583Z,13.90
2022-10-31T14:32:02.347Z,14.32
2022-10-31T14:34:35.926Z,12.85
2022-10-31T14:37:16.876Z,14.10
2022-10-31T14:40:00.656Z,13.35
2022-10-31T14:42:45.672Z,13.68
2022-10-31T14:45:39.072Z,14.68
2022-10-31T14:48:17.795Z,14.40
2022-10-31T14:50:51.392Z,15.32
2022-10-31T14:53:29.188Z,15.05
2022-10-31T14:56:05.797Z,13.93
2022-10-31T14:58:41.900Z,17.35
2022-10-31T15:01:19.213Z,16.17
2022-10-31T15:04:17.702Z,16.77
2022-10-31T15:06:47.562Z,15.05
2022-10-31T15:09:27.344Z,17.17
2022-10-31T15:11:56.242Z,15.82
2022-10-31T15:14:28.886Z,14.55
2022-10-31T15:17:00.190Z,16.70
2022-10-31T15:19:31.333Z,17.08
2022-10-31T15:22:00.870Z,16.75
2022-10-31T15:24:35.389Z,16.30
2022-10-31T15:27:06.862Z,17.40
2022-10-31T15:29:37.373Z,17.50
2022-10-31T15:32:21.319Z,16.83
2022-10-31T15:34:49.959Z,18.38
2022-10-31T15:37:21.860Z,18.30
2022-10-31T15:39:51.657Z,18.40
2022-10-31T15:42:24.611Z,19.05
2022-10-31T15:45:00.495Z,17.95
2022-10-31T15:47:30.863Z,18.15
2022-10-31T15:50:01.073Z,18.98
2022-10-31T15:52:35.478Z,20.35
2022-10-31T15:55:06.874Z,21.00
2022-10-31T15:57:44.408Z,20.15
2022-10-31T16:00:26.661Z,21.73
2022-10-31T16:03:06.162Z,20.65
2022-10-31T16:05:40.209Z,22.05
2022-10-31T16:08:25.898Z,23.95
2022-10-31T16:10:55.193Z,21.98
2022-10-31T16:13:29.441Z,21.77
2022-10-31T16:16:29.303Z,22.95
2022-10-31T16:18:53.756Z,22.05
2022-10-31T16:21:32.507Z,21.67
2022-10-31T16:24:06.396Z,22.90
2022-10-31T16:26:36.224Z,21.73
2022-10-31T16:29:10.114Z,22.73
2022-10-31T16:31:42.336Z,22.52
2022-10-31T16:34:17.153Z,22.65
2022-10-31T16:36:45.665Z,46.10
2022-10-31T16:39:15.107Z,22.10
2022-10-31T16:41:45.204Z,23.58
2022-10-31T16:44:20.411Z,24.20
2022-10-31T16:46:50.312Z,25.23
2022-10-31T16:49:20.231Z,25.20
2022-10-31T16:51:48.659Z,24.48
2022-10-31T16:54:17.044Z,26.08
2022-10-31T16:56:45.650Z,24.95
2022-10-31T16:59:16.461Z,26.73
2022-10-31T17:01:49.435Z,24.00
2022-10-31T17:04:19.720Z,23.90
2022-10-31T17:06:48.209Z,26.45
2022-10-31T17:09:16.650Z,26.13
2022-10-31T17:11:50.024Z,25.13
2022-10-31T17:14:19.272Z,23.83
2022-10-31T17:16:47.742Z,23.23
2022-10-31T17:19:16.367Z,23.65
2022-10-31T17:21:46.384Z,23.00
2022-10-31T17:24:15.732Z,22.58
2022-10-31T17:26:44.882Z,23.33
2022-10-31T17:29:13.180Z,23.58
2022-10-31T17:31:41.768Z,25.40
2022-10-31T17:34:11.223Z,24.23
2022-10-31T17:36:39.826Z,24.38
2022-10-31T17:39:10.974Z,24.20
2022-10-31T17:41:39.275Z,25.65
2022-10-31T17:44:07.693Z,24.65
2022-10-31T17:46:36.010Z,23.95
2022-10-31T17:49:05.346Z,22.52
2022-10-31T17:51:33.703Z,19.58
2022-10-31T17:54:02.008Z,21.10
2022-10-31T17:56:31.844Z,20.27
2022-10-31T17:59:00.264Z,20.38
2022-10-31T18:01:28.764Z,21.02
2022-10-31T18:03:58.475Z,20.83
2022-10-31T18:06:26.776Z,17.83
2022-10-31T18:08:57.991Z,19.60
2022-10-31T18:11:26.357Z,20.60
2022-10-31T18:13:58.767Z,19.33
2022-10-31T18:16:27.727Z,19.58
2022-10-31T18:18:59.379Z,20.88
2022-10-31T18:21:27.844Z,18.27
2022-10-31T18:23:56.814Z,20.23
2022-10-31T18:26:26.971Z,19.50
2022-10-31T18:28:55.836Z,19.55
2022-10-31T18:31:26.345Z,18.90
2022-10-31T18:33:54.888Z,20.13
2022-10-31T18:36:23.760Z,19.90
2022-10-31T18:38:52.173Z,20.13
2022-10-31T18:41:20.508Z,19.23
2022-10-31T18:43:48.886Z,18.65
2022-10-31T18:46:18.853Z,20.42
2022-10-31T18:48:48.556Z,19.30
2022-10-31T18:51:18.559Z,21.20
2022-10-31T18:53:52.326Z,21.25
2022-10-31T18:56:20.923Z,20.13
2022-10-31T18:58:49.651Z,19.63
2022-10-31T19:01:19.930Z,20.55
2022-10-31T19:03:55.545Z,17.58
2022-10-31T19:06:24.264Z,18.42
2022-10-31T19:08:59.314Z,19.55
2022-10-31T19:11:28.174Z,18.77
2022-10-31T19:13:58.259Z,19.38
2022-10-31T19:16:26.644Z,20.70
2022-10-31T19:18:57.841Z,20.00
2022-10-31T19:21:26.454Z,20.48
2022-10-31T19:23:57.410Z,19.48
2022-10-31T19:26:26.400Z,20.10
2022-10-31T19:28:56.249Z,20.98
2022-10-31T19:31:24.816Z,20.77
2022-10-31T19:33:53.527Z,20.83
2022-10-31T19:36:24.044Z,20.90
2022-10-31T19:38:54.240Z,20.58
2022-10-31T19:41:24.386Z,19.42
2022-10-31T19:43:53.242Z,20.17
2022-10-31T19:46:40.440Z,18.92
2022-10-31T19:49:12.256Z,19.17
2022-10-31T19:51:42.040Z,17.58
2022-10-31T19:54:10.411Z,18.50
2022-10-31T19:56:38.822Z,18.75
2022-10-31T19:59:07.121Z,17.98
2022-10-31T20:01:35.996Z,18.80
2022-10-31T20:04:04.518Z,19.13
2022-10-31T20:06:36.103Z,17.92
2022-10-31T20:09:09.849Z,17.83
2022-10-31T20:11:39.372Z,18.52
2022-10-31T20:14:08.684Z,19.20
2022-10-31T20:16:37.008Z,18.65
2022-10-31T20:19:05.766Z,19.27
2022-10-31T20:21:38.221Z,19.20
2022-10-31T20:24:10.777Z,19.33
2022-10-31T20:26:40.886Z,18.83
2022-10-31T20:29:13.538Z,19.83
2022-10-31T20:31:42.007Z,19.67
2022-10-31T20:34:10.887Z,19.98
2022-10-31T20:36:39.272Z,19.55
2022-10-31T20:39:10.424Z,18.23
2022-10-31T20:41:39.812Z,18.73
2022-10-31T20:44:08.671Z,19.48
2022-10-31T20:46:37.098Z,18.58
2022-10-31T20:49:05.606Z,19.38
2022-10-31T20:51:34.164Z,17.88
2022-10-31T20:54:02.512Z,17.65
2022-10-31T20:56:32.350Z,17.65
2022-10-31T20:59:00.967Z,17.00
2022-10-31T21:01:31.497Z,17.50
2022-10-31T21:04:00.226Z,17.60
2022-10-31T21:06:29.021Z,17.52
2022-10-31T21:08:58.482Z,16.83
2022-10-31T21:11:28.708Z,17.63
2022-10-31T21:13:59.972Z,18.27
2022-10-31T21:16:30.289Z,16.92
2022-10-31T21:19:00.766Z,18.42
2022-10-31T21:21:32.794Z,17.58
2022-10-31T21:24:03.569Z,17.20
2022-10-31T21:26:34.804Z,17.83
2022-10-31T21:29:06.681Z,18.05
2022-10-31T21:31:36.658Z,17.55
2022-10-31T21:34:05.918Z,18.63
2022-10-31T21:36:35.183Z,19.33
2022-10-31T21:39:03.918Z,16.98
2022-10-31T21:41:33.082Z,17.17
2022-10-31T21:44:01.565Z,18.45
2022-10-31T21:46:33.050Z,18.50
2022-10-31T21:49:04.047Z,17.98
2022-10-31T21:51:35.391Z,16.77
2022-10-31T21:54:21.516Z,17.80
2022-10-31T21:56:51.275Z,17.10
2022-10-31T21:59:19.725Z,17.60
2022-10-31T22:01:49.713Z,17.63
2022-10-31T22:04:18.684Z,18.13
2022-10-31T22:06:47.470Z,17.63
2022-10-31T22:09:17.351Z,19.48
2022-10-31T22:11:46.014Z,18.90
2022-10-31T22:14:15.883Z,17.50
2022-10-31T22:16:44.851Z,18.52
2022-10-31T22:19:15.805Z,18.70
2022-10-31T22:21:46.480Z,18.17
2022-10-31T22:24:15.258Z,18.48
2022-10-31T22:26:43.874Z,18.92
2022-10-31T22:29:14.059Z,18.10
2022-10-31T22:31:44.062Z,17.55
2022-10-31T22:34:12.733Z,18.00
2022-10-31T22:36:43.185Z,17.73
2022-10-31T22:39:12.908Z,17.73
2022-10-31T22:41:41.507Z,17.75
2022-10-31T22:44:10.046Z,17.80
2022-10-31T22:46:39.972Z,17.52
2022-10-31T22:49:10.236Z,16.77
2022-10-31T22:51:39.893Z,17.38
2022-10-31T22:54:14.530Z,16.63
2022-10-31T22:56:42.945Z,19.27
2022-10-31T22:59:13.937Z,18.05
2022-10-31T23:01:44.945Z,18.33
2022-10-31T23:04:14.020Z,20.65
2022-10-31T23:06:42.484Z,18.73
2022-10-31T23:09:14.875Z,19.83
2022-10-31T23:11:43.187Z,19.40
2022-10-31T23:14:14.260Z,19.42
2022-10-31T23:16:45.678Z,19.58
2022-10-31T23:19:17.404Z,19.52
2022-10-31T23:21:57.622Z,19.92
2022-10-31T23:24:30.658Z,19.73
2022-10-31T23:27:08.591Z,19.73
2022-10-31T23:29:43.652Z,20.00
2022-10-31T23:32:18.669Z,20.17
2022-10-31T23:34:47.918Z,20.45
2022-10-31T23:37:17.568Z,20.85
2022-10-31T23:39:47.411Z,19.15
2022-10-31T23:42:16.853Z,22.10
2022-10-31T23:44:45.269Z,19.58
2022-10-31T23:47:14.022Z,20.38
2022-10-31T23:49:42.387Z,18.67
2022-10-31T23:52:11.382Z,19.60
2022-10-31T23:54:39.671Z,21.55
2022-10-31T23:57:09.483Z,20.30
2022-10-31T23:59:38.187Z,19.40
